Anita, PA

6:27 AM EDT on October 02, 2014 (GMT -0400)
Holly Terrace | Change Station
CLOSE
Current Station
Personal Weather Station
Location: Falls Creek, PA
Elevation: 1473 ft
Nearby Weather Stations

Elev 1473 ft 41.14 °N, 78.81 °W | Updated 15 seconds ago

Fog
Fog
46.6 °F
Feels Like 47 °F
N
0.0
Wind Variable Wind from SW
Gusts 0.0 mph

Today
High -- | Low -- °F
--% Chance of Precip.
Yesterday
High -- | Low -- °F
Precip. -- in
7:13 AM 6:55 PM
First Quarter, 57% visible
Pressure 30.10 in
Visibility 0.2 miles
Clouds
Windchill 47 °F
Dew Point 46 °F
Humidity 99%
Rainfall 0.00 in
Snow Depth Not available.
UV Not available.
Pollen 1.70 out of 12
Air Quality Not available.
Flu Activity Not available.
SPECI KDUJ 021002Z AUTO 00000KT 1/4SM FG VV005 11/11 A3010 RMK AO2 T01110111 $

More Conditions Fewer Conditions

Pressure 30.10 in
Visibility 0.2 miles
Clouds
Windchill 47 °F
Dew Point 46 °F
Humidity 99%
Rainfall 0.00 in
Snow Depth Not available.
UV Not available.
Pollen 1.70 out of 12
Air Quality Not available.
Flu Activity Not available.
SPECI KDUJ 021002Z AUTO 00000KT 1/4SM FG VV005 11/11 A3010 RMK AO2 T01110111 $

More Conditions Fewer Conditions

10-Day Weather Forecast

Almanac

Astronomy

Oct. 02, 2014 Rise Set
Actual Time 7:13 AM EDT 6:55 PM EDT
Civil Twilight 6:45 AM EDT 7:23 PM EDT
Nautical Twilight 6:13 AM EDT 7:55 PM EDT
Astronomical Twilight 5:41 AM EDT 8:27 PM EDT
Moon 3:03 PM EDT 12:25 AM EDT
Length of Visible Light 12h 37m
Length of Day
11h 42m
Tomorrow will be 2m 43s shorter.
First Quarter, 57% of the Moon is Illuminated
Today
First Quarter
Oct 8
Full
Oct 15
Last Quarter
Oct 23
New
Oct 30
First Quarter

Today's Extremes

State Highs State Lows

Community

WunderPhotos

Upload Photos

1,758,209 photos uploaded!

WunderBlogs® & News

Nearby

Snow Depth

Station Depth Elevation
No new snow has been reported.

Earthquake Activity

City Distance Mag. Time & Date
No recent earthquake activity has been reported nearby.
Minimum magnitude displayed is 2.5.

Coastal Water Temperatures

Place Temperature
No Stations Reporting

Nearby Weather Stations